To NAV CANADA Home Page Login to a new session Search on AWWS site Disclaimer Vers la page française équivalente Tips FAQ What's new on the site To the Forecasts and Observations / NOTAM section To "File a Flight Plan" website Publications and other links Update of the User's profile FIC Telephone Numbers My Weather Data Folder Route Weather Data Regional Weather Data Local Weather Data To the Forecasts and Observations / NOTAM section
Request Generated 10/19/2018 at 15:27:48 UTC . Weather information available at that time is displayed.

METAR/TAF

ROBERVAL/QC    

METAR CYRJ 191500Z 12005KT 25SM BKN018 OVC050 01/M02 A2980 RMK SC7SC1 SLP102=
METAR CYRJ 191400Z 12004KT 25SM FEW018 BKN035 OVC053 M00/M02 A2983 RMK SC2SC4SC2 SLP113=
METAR CYRJ 191300Z 10004KT 080V140 25SM BKN021 OVC028 M01/M02 A2987 RMK SC5SC3 SLP125=

TAF CYRJ 191338Z 1914/2002 10005KT P6SM OVC040 TEMPO 1914/1917 5SM
-RASN OVC020
BECMG 1914/1916 20010G20KT
FM191700 20012G22KT P6SM BKN030 BKN140 TEMPO 1917/1921 BKN020
FM192100 20012G22KT P6SM -RA OVC025 TEMPO 1921/2002 5SM -RA BR
OVC020
RMK NXT FCST BY 192000Z=
Your time UTC time
Weather data provided by Environment Canada and NAV CANADA